sensor_id;sensor_type;location;lat;lon;timestamp;P1;durP1;ratioP1;P2;durP2;ratioP2
52102;SDS011;38101;53.126;6.878;2024-01-25T16:30:49;16.52;;;6.57;;
52102;SDS011;38101;53.126;6.878;2024-01-25T16:33:15;16.55;;;6.97;;
52102;SDS011;38101;53.126;6.878;2024-01-25T16:35:41;17.77;;;6.70;;
52102;SDS011;38101;53.126;6.878;2024-01-25T16:38:06;15.63;;;6.80;;
52102;SDS011;38101;53.126;6.878;2024-01-25T16:40:32;23.98;;;8.38;;
52102;SDS011;38101;53.126;6.878;2024-01-25T16:42:59;19.52;;;7.22;;
52102;SDS011;38101;53.126;6.878;2024-01-25T16:45:25;17.88;;;6.80;;
52102;SDS011;38101;53.126;6.878;2024-01-25T16:47:51;18.55;;;6.68;;
52102;SDS011;38101;53.126;6.878;2024-01-25T16:50:17;18.58;;;6.70;;
52102;SDS011;38101;53.126;6.878;2024-01-25T16:52:42;14.98;;;6.57;;
52102;SDS011;38101;53.126;6.878;2024-01-25T16:55:08;25.17;;;7.15;;
52102;SDS011;38101;53.126;6.878;2024-01-25T16:57:34;18.08;;;6.68;;
52102;SDS011;38101;53.126;6.878;2024-01-25T17:00:00;18.23;;;6.45;;
52102;SDS011;38101;53.126;6.878;2024-01-25T17:02:25;20.63;;;6.15;;
52102;SDS011;38101;53.126;6.878;2024-01-25T17:04:51;20.65;;;6.50;;
52102;SDS011;38101;53.126;6.878;2024-01-25T17:07:17;20.20;;;6.95;;
52102;SDS011;38101;53.126;6.878;2024-01-25T17:09:43;22.52;;;6.25;;
52102;SDS011;38101;53.126;6.878;2024-01-25T17:12:09;20.33;;;7.35;;
52102;SDS011;38101;53.126;6.878;2024-01-25T17:14:36;19.75;;;6.35;;
52102;SDS011;38101;53.126;6.878;2024-01-25T17:17:02;15.68;;;7.13;;
52102;SDS011;38101;53.126;6.878;2024-01-25T17:19:28;18.02;;;5.85;;
52102;SDS011;38101;53.126;6.878;2024-01-25T17:21:54;22.70;;;7.40;;
52102;SDS011;38101;53.126;6.878;2024-01-25T17:24:19;19.35;;;6.35;;
52102;SDS011;38101;53.126;6.878;2024-01-25T17:26:45;21.02;;;7.50;;
52102;SDS011;38101;53.126;6.878;2024-01-25T17:29:11;19.67;;;6.45;;
52102;SDS011;38101;53.126;6.878;2024-01-25T17:31:37;22.15;;;7.22;;
52102;SDS011;38101;53.126;6.878;2024-01-25T17:34:03;22.23;;;7.60;;
52102;SDS011;38101;53.126;6.878;2024-01-25T17:36:30;22.90;;;7.43;;
52102;SDS011;38101;53.126;6.878;2024-01-25T17:38:55;14.00;;;6.15;;
52102;SDS011;38101;53.126;6.878;2024-01-25T17:41:21;28.70;;;9.55;;
52102;SDS011;38101;53.126;6.878;2024-01-25T17:43:47;20.58;;;8.35;;
52102;SDS011;38101;53.126;6.878;2024-01-25T17:46:12;26.15;;;10.57;;
52102;SDS011;38101;53.126;6.878;2024-01-25T17:48:38;18.23;;;8.20;;
52102;SDS011;38101;53.126;6.878;2024-01-25T17:51:04;20.17;;;8.18;;
52102;SDS011;38101;53.126;6.878;2024-01-25T17:53:30;20.20;;;7.63;;
52102;SDS011;38101;53.126;6.878;2024-01-25T17:55:56;19.77;;;7.68;;
52102;SDS011;38101;53.126;6.878;2024-01-25T17:58:22;18.88;;;6.70;;
52102;SDS011;38101;53.126;6.878;2024-01-25T18:00:47;17.70;;;6.45;;
52102;SDS011;38101;53.126;6.878;2024-01-25T18:03:16;20.88;;;7.00;;
52102;SDS011;38101;53.126;6.878;2024-01-25T18:06:06;20.52;;;6.53;;
52102;SDS011;38101;53.126;6.878;2024-01-25T18:08:32;22.75;;;6.40;;
52102;SDS011;38101;53.126;6.878;2024-01-25T18:10:58;23.35;;;7.38;;
52102;SDS011;38101;53.126;6.878;2024-01-25T18:13:25;22.27;;;7.32;;
52102;SDS011;38101;53.126;6.878;2024-01-25T18:15:51;17.90;;;5.88;;
52102;SDS011;38101;53.126;6.878;2024-01-25T18:18:17;18.55;;;6.70;;
52102;SDS011;38101;53.126;6.878;2024-01-25T18:20:43;20.23;;;7.15;;
52102;SDS011;38101;53.126;6.878;2024-01-25T18:23:09;24.85;;;7.30;;
52102;SDS011;38101;53.126;6.878;2024-01-25T18:25:34;19.75;;;7.90;;
52102;SDS011;38101;53.126;6.878;2024-01-25T18:28:00;24.70;;;8.75;;
52102;SDS011;38101;53.126;6.878;2024-01-25T18:30:26;19.02;;;7.57;;
52102;SDS011;38101;53.126;6.878;2024-01-25T18:32:51;21.95;;;8.15;;
52102;SDS011;38101;53.126;6.878;2024-01-25T18:35:17;26.02;;;8.23;;
52102;SDS011;38101;53.126;6.878;2024-01-25T18:37:43;30.98;;;8.93;;
52102;SDS011;38101;53.126;6.878;2024-01-25T18:40:09;23.83;;;9.23;;
52102;SDS011;38101;53.126;6.878;2024-01-25T18:42:35;31.10;;;8.98;;
52102;SDS011;38101;53.126;6.878;2024-01-25T18:45:04;22.77;;;8.93;;
52102;SDS011;38101;53.126;6.878;2024-01-25T18:47:30;29.92;;;9.73;;
52102;SDS011;38101;53.126;6.878;2024-01-25T18:49:56;27.30;;;9.73;;
52102;SDS011;38101;53.126;6.878;2024-01-25T18:52:22;25.65;;;9.70;;
52102;SDS011;38101;53.126;6.878;2024-01-25T18:54:48;25.60;;;8.80;;
52102;SDS011;38101;53.126;6.878;2024-01-25T18:57:14;28.90;;;9.95;;
52102;SDS011;38101;53.126;6.878;2024-01-25T18:59:41;25.17;;;9.93;;
52102;SDS011;38101;53.126;6.878;2024-01-25T19:02:07;25.98;;;10.23;;
52102;SDS011;38101;53.126;6.878;2024-01-25T19:04:33;26.23;;;9.77;;
52102;SDS011;38101;53.126;6.878;2024-01-25T19:06:59;29.25;;;11.98;;
52102;SDS011;38101;53.126;6.878;2024-01-25T19:09:26;22.63;;;10.57;;
52102;SDS011;38101;53.126;6.878;2024-01-25T19:11:52;25.88;;;11.10;;
52102;SDS011;38101;53.126;6.878;2024-01-25T19:14:19;29.00;;;10.50;;
52102;SDS011;38101;53.126;6.878;2024-01-25T19:16:47;20.50;;;9.75;;
52102;SDS011;38101;53.126;6.878;2024-01-25T19:19:16;29.60;;;11.10;;
52102;SDS011;38101;53.126;6.878;2024-01-25T19:21:41;26.45;;;11.38;;
52102;SDS011;38101;53.126;6.878;2024-01-25T19:24:07;27.05;;;11.57;;
52102;SDS011;38101;53.126;6.878;2024-01-25T19:26:37;23.05;;;10.32;;
52102;SDS011;38101;53.126;6.878;2024-01-25T19:29:03;23.90;;;10.68;;
52102;SDS011;38101;53.126;6.878;2024-01-25T19:31:29;31.10;;;11.68;;
52102;SDS011;38101;53.126;6.878;2024-01-25T19:33:57;28.15;;;12.18;;
52102;SDS011;38101;53.126;6.878;2024-01-25T19:36:22;22.05;;;11.25;;
52102;SDS011;38101;53.126;6.878;2024-01-25T19:38:48;22.80;;;12.10;;
52102;SDS011;38101;53.126;6.878;2024-01-25T19:41:14;26.33;;;13.52;;
52102;SDS011;38101;53.126;6.878;2024-01-25T19:43:40;26.88;;;14.13;;
52102;SDS011;38101;53.126;6.878;2024-01-25T19:46:05;26.88;;;15.38;;
52102;SDS011;38101;53.126;6.878;2024-01-25T19:48:31;26.17;;;13.75;;
52102;SDS011;38101;53.126;6.878;2024-01-25T19:50:57;32.05;;;16.73;;
52102;SDS011;38101;53.126;6.878;2024-01-25T19:53:23;25.27;;;15.10;;
52102;SDS011;38101;53.126;6.878;2024-01-25T19:55:49;28.00;;;13.48;;
52102;SDS011;38101;53.126;6.878;2024-01-25T19:58:15;31.25;;;14.38;;
52102;SDS011;38101;53.126;6.878;2024-01-25T20:00:41;26.42;;;13.90;;
52102;SDS011;38101;53.126;6.878;2024-01-25T20:03:07;28.58;;;14.82;;
52102;SDS011;38101;53.126;6.878;2024-01-25T20:05:34;29.60;;;14.93;;
52102;SDS011;38101;53.126;6.878;2024-01-25T20:07:59;29.33;;;14.98;;
52102;SDS011;38101;53.126;6.878;2024-01-25T20:10:26;32.63;;;15.68;;
52102;SDS011;38101;53.126;6.878;2024-01-25T20:12:52;27.77;;;15.80;;
52102;SDS011;38101;53.126;6.878;2024-01-25T20:15:17;33.88;;;15.75;;
52102;SDS011;38101;53.126;6.878;2024-01-25T20:17:43;32.75;;;15.27;;
52102;SDS011;38101;53.126;6.878;2024-01-25T20:20:10;27.48;;;15.95;;
52102;SDS011;38101;53.126;6.878;2024-01-25T20:22:36;36.03;;;16.85;;
52102;SDS011;38101;53.126;6.878;2024-01-25T20:25:04;35.70;;;16.80;;
52102;SDS011;38101;53.126;6.878;2024-01-25T20:27:30;34.95;;;17.40;;
52102;SDS011;38101;53.126;6.878;2024-01-25T20:29:56;36.20;;;17.75;;
52102;SDS011;38101;53.126;6.878;2024-01-25T20:32:22;41.28;;;19.27;;
52102;SDS011;38101;53.126;6.878;2024-01-25T20:34:48;32.70;;;17.00;;
52102;SDS011;38101;53.126;6.878;2024-01-25T20:37:14;35.53;;;17.83;;
52102;SDS011;38101;53.126;6.878;2024-01-25T20:39:40;36.13;;;17.75;;
52102;SDS011;38101;53.126;6.878;2024-01-25T20:42:05;38.55;;;18.55;;
52102;SDS011;38101;53.126;6.878;2024-01-25T20:44:32;38.00;;;18.73;;
52102;SDS011;38101;53.126;6.878;2024-01-25T20:46:58;38.95;;;19.17;;
52102;SDS011;38101;53.126;6.878;2024-01-25T20:49:24;39.55;;;19.52;;
52102;SDS011;38101;53.126;6.878;2024-01-25T20:51:49;39.45;;;19.20;;
52102;SDS011;38101;53.126;6.878;2024-01-25T20:54:15;35.30;;;19.02;;
52102;SDS011;38101;53.126;6.878;2024-01-25T20:56:41;32.80;;;18.65;;
52102;SDS011;38101;53.126;6.878;2024-01-25T20:59:07;38.95;;;19.17;;
52102;SDS011;38101;53.126;6.878;2024-01-25T21:01:35;37.53;;;19.02;;
52102;SDS011;38101;53.126;6.878;2024-01-25T21:04:01;36.97;;;17.42;;
52102;SDS011;38101;53.126;6.878;2024-01-25T21:06:28;37.33;;;19.98;;
52102;SDS011;38101;53.126;6.878;2024-01-25T21:08:54;38.55;;;18.90;;
52102;SDS011;38101;53.126;6.878;2024-01-25T21:11:20;42.05;;;19.35;;
52102;SDS011;38101;53.126;6.878;2024-01-25T21:13:46;38.38;;;19.23;;
52102;SDS011;38101;53.126;6.878;2024-01-25T21:16:12;37.67;;;18.85;;
52102;SDS011;38101;53.126;6.878;2024-01-25T21:18:38;42.83;;;19.48;;
52102;SDS011;38101;53.126;6.878;2024-01-25T21:21:04;37.42;;;20.38;;
52102;SDS011;38101;53.126;6.878;2024-01-25T21:23:31;38.05;;;19.75;;
52102;SDS011;38101;53.126;6.878;2024-01-25T21:25:57;44.35;;;20.65;;
52102;SDS011;38101;53.126;6.878;2024-01-25T21:28:22;39.50;;;21.65;;
52102;SDS011;38101;53.126;6.878;2024-01-25T21:30:50;40.50;;;21.73;;
52102;SDS011;38101;53.126;6.878;2024-01-25T21:33:15;40.40;;;20.73;;
52102;SDS011;38101;53.126;6.878;2024-01-25T21:35:41;41.60;;;23.13;;
52102;SDS011;38101;53.126;6.878;2024-01-25T21:38:07;39.58;;;20.92;;
52102;SDS011;38101;53.126;6.878;2024-01-25T21:40:32;39.30;;;19.73;;
52102;SDS011;38101;53.126;6.878;2024-01-25T21:42:58;39.70;;;19.58;;
52102;SDS011;38101;53.126;6.878;2024-01-25T21:45:25;41.85;;;22.02;;
52102;SDS011;38101;53.126;6.878;2024-01-25T21:47:51;35.47;;;19.55;;
52102;SDS011;38101;53.126;6.878;2024-01-25T21:50:17;31.63;;;18.80;;
52102;SDS011;38101;53.126;6.878;2024-01-25T21:52:43;38.35;;;19.52;;
